createdAt,value
2019-03-03T00:04:04.919Z,7.23
2019-03-03T00:09:10.737Z,9.90
2019-03-03T00:14:16.809Z,4.83
2019-03-03T00:19:22.797Z,4.60
2019-03-03T00:24:28.549Z,6.83
2019-03-03T00:29:34.413Z,5.00
2019-03-03T00:34:40.229Z,4.90
2019-03-03T00:39:50.893Z,7.40
2019-03-03T00:45:06.088Z,5.47
2019-03-03T00:50:17.610Z,5.10
2019-03-03T00:55:42.535Z,1.27
2019-03-03T01:00:55.642Z,4.20
2019-03-03T01:06:20.418Z,6.73
2019-03-03T01:11:48.200Z,6.77
2019-03-03T01:17:13.136Z,2.93
2019-03-03T01:22:44.216Z,4.83
2019-03-03T01:27:50.080Z,3.50
2019-03-03T01:32:55.852Z,4.43
2019-03-03T01:38:01.836Z,9.07
2019-03-03T01:43:07.726Z,5.70
2019-03-03T01:48:14.997Z,6.47
2019-03-03T01:53:20.765Z,6.27
2019-03-03T01:58:26.657Z,5.70
2019-03-03T02:03:34.129Z,6.70
2019-03-03T02:08:40.031Z,1.30
2019-03-03T02:13:46.003Z,3.07
2019-03-03T02:18:51.965Z,1.00
2019-03-03T02:23:57.933Z,1.60
2019-03-03T02:29:05.197Z,2.27
2019-03-03T02:34:11.031Z,1.63
2019-03-03T02:39:18.859Z,2.80
2019-03-03T02:44:24.919Z,0.50
2019-03-03T02:49:30.781Z,1.80
2019-03-03T02:54:36.697Z,4.47
2019-03-03T02:59:42.525Z,2.93
2019-03-03T03:04:48.487Z,4.23
2019-03-03T03:10:08.416Z,3.20
2019-03-03T03:15:32.627Z,3.07
2019-03-03T03:21:00.158Z,2.73
2019-03-03T03:26:23.175Z,2.07
2019-03-03T03:31:38.918Z,2.87
2019-03-03T03:37:18.894Z,2.60
2019-03-03T03:42:36.716Z,2.47
2019-03-03T03:48:02.530Z,2.53
2019-03-03T03:53:22.732Z,3.43
2019-03-03T03:58:37.313Z,3.73
2019-03-03T04:04:03.687Z,5.37
2019-03-03T04:09:24.307Z,1.47
2019-03-03T04:14:36.816Z,7.40
2019-03-03T04:20:04.728Z,3.23
2019-03-03T04:25:29.528Z,4.07
2019-03-03T04:30:50.439Z,3.20
2019-03-03T04:36:14.787Z,6.87
2019-03-03T04:41:30.869Z,3.90
2019-03-03T04:47:05.969Z,3.00
2019-03-03T04:52:19.771Z,3.73
2019-03-03T04:57:43.443Z,1.87
2019-03-03T05:03:01.938Z,1.93
2019-03-03T05:08:29.548Z,1.73
2019-03-03T05:13:49.218Z,1.50
2019-03-03T05:19:12.020Z,2.20
2019-03-03T05:24:17.836Z,5.03
2019-03-03T05:29:23.599Z,1.10
2019-03-03T05:34:29.467Z,2.50
2019-03-03T05:39:35.274Z,0.53
2019-03-03T05:44:41.131Z,2.03
2019-03-03T05:49:47.019Z,0.97
2019-03-03T05:54:53.152Z,0.60
2019-03-03T06:00:00.347Z,0.87
2019-03-03T06:05:06.338Z,1.10
2019-03-03T06:10:12.462Z,2.13
2019-03-03T06:15:18.302Z,0.87
2019-03-03T06:20:24.273Z,1.07
2019-03-03T06:25:30.044Z,3.70
2019-03-03T06:30:36.044Z,1.80
2019-03-03T06:35:41.935Z,1.63
2019-03-03T06:40:47.778Z,1.93
2019-03-03T06:45:53.641Z,1.37
2019-03-03T06:50:59.394Z,1.90
2019-03-03T06:56:05.036Z,2.03
2019-03-03T07:01:12.066Z,2.27
2019-03-03T07:06:17.949Z,4.73
2019-03-03T07:11:23.808Z,1.73
2019-03-03T07:16:29.600Z,1.43
2019-03-03T07:21:35.561Z,5.20
2019-03-03T07:26:41.441Z,6.47
2019-03-03T07:31:47.541Z,2.70
2019-03-03T07:36:53.354Z,4.37
2019-03-03T07:41:59.455Z,6.07
2019-03-03T07:47:05.323Z,7.77
2019-03-03T07:52:11.322Z,4.40
2019-03-03T07:57:17.406Z,4.93
2019-03-03T08:02:23.504Z,7.23
2019-03-03T08:07:29.412Z,9.07
2019-03-03T08:12:35.335Z,6.80
2019-03-03T08:17:41.297Z,8.93
2019-03-03T08:22:47.385Z,6.50
2019-03-03T08:27:53.323Z,15.23
2019-03-03T08:32:59.132Z,8.60
2019-03-03T08:38:05.215Z,7.40
2019-03-03T08:43:21.707Z,6.40
2019-03-03T08:48:40.814Z,3.40
2019-03-03T08:53:56.197Z,2.27
2019-03-03T08:59:20.943Z,5.37
2019-03-03T09:04:51.898Z,2.10
2019-03-03T09:10:10.828Z,3.63
2019-03-03T09:15:35.503Z,4.33
2019-03-03T09:20:53.644Z,4.23
2019-03-03T09:26:14.034Z,2.33
2019-03-03T09:31:53.956Z,2.23
2019-03-03T09:37:08.425Z,3.87
2019-03-03T09:42:33.252Z,1.80
2019-03-03T09:47:57.946Z,4.30
2019-03-03T09:53:34.843Z,3.43
2019-03-03T09:59:14.988Z,3.17
2019-03-03T10:04:38.434Z,7.90
2019-03-03T10:09:58.708Z,2.83
2019-03-03T10:15:22.344Z,4.23
2019-03-03T10:20:47.316Z,3.30
2019-03-03T10:26:10.738Z,4.40
2019-03-03T10:31:31.371Z,3.33
2019-03-03T10:37:02.458Z,2.53
2019-03-03T10:42:22.753Z,2.43
2019-03-03T10:48:06.082Z,3.73
2019-03-03T10:53:17.501Z,3.60
2019-03-03T10:58:40.417Z,4.90
2019-03-03T11:04:03.991Z,8.70
2019-03-03T11:09:36.808Z,4.87
2019-03-03T11:15:18.458Z,8.33
2019-03-03T11:20:49.798Z,3.90
2019-03-03T11:26:13.278Z,6.23
2019-03-03T11:31:37.897Z,7.73
2019-03-03T11:36:48.741Z,6.00
2019-03-03T11:42:13.178Z,8.33
2019-03-03T11:47:36.924Z,19.77
2019-03-03T11:52:48.206Z,15.53
2019-03-03T11:58:05.620Z,18.37
2019-03-03T12:03:25.411Z,20.57
2019-03-03T12:08:49.920Z,13.47
2019-03-03T12:14:29.626Z,18.73
2019-03-03T12:19:58.274Z,19.90
2019-03-03T12:25:19.418Z,22.97
2019-03-03T12:30:31.432Z,22.87
2019-03-03T12:35:54.650Z,23.83
2019-03-03T12:41:19.203Z,25.67
2019-03-03T12:46:37.350Z,16.43
2019-03-03T12:51:55.733Z,24.37
2019-03-03T12:57:38.111Z,18.43
2019-03-03T13:03:03.624Z,28.90
2019-03-03T13:08:33.962Z,19.33
2019-03-03T13:13:50.604Z,21.53
2019-03-03T13:19:14.277Z,21.53
2019-03-03T13:24:31.476Z,35.27
2019-03-03T13:29:56.766Z,21.57
2019-03-03T13:35:21.136Z,29.33
2019-03-03T13:40:48.626Z,29.07
2019-03-03T13:45:54.202Z,34.00
2019-03-03T13:50:59.807Z,21.37
2019-03-03T13:56:05.347Z,30.77
2019-03-03T14:01:10.838Z,29.90
2019-03-03T14:06:16.396Z,40.40
2019-03-03T14:11:27.929Z,32.50
2019-03-03T14:16:33.473Z,27.87
2019-03-03T14:21:39.085Z,25.90
2019-03-03T14:26:44.518Z,25.63
2019-03-03T14:31:50.083Z,26.63
2019-03-03T14:36:55.635Z,24.07
2019-03-03T14:42:01.406Z,27.03
2019-03-03T14:47:06.949Z,29.37
2019-03-03T14:52:12.712Z,21.00
2019-03-03T14:57:18.172Z,26.77
2019-03-03T15:02:23.802Z,30.50
2019-03-03T15:07:29.417Z,16.53
2019-03-03T15:12:35.925Z,22.50
2019-03-03T15:17:46.421Z,21.83
2019-03-03T15:22:53.798Z,16.20
2019-03-03T15:27:59.866Z,8.93
2019-03-03T15:33:05.855Z,19.37
2019-03-03T15:38:11.774Z,10.27
2019-03-03T15:43:17.457Z,12.10
2019-03-03T15:48:23.182Z,6.43
2019-03-03T15:53:28.786Z,9.60
2019-03-03T15:58:34.394Z,9.23
2019-03-03T16:03:40.166Z,4.97
2019-03-03T16:08:45.744Z,4.37
2019-03-03T16:13:51.435Z,9.27
2019-03-03T16:18:57.370Z,8.85
2019-03-03T16:24:03.083Z,10.95
2019-03-03T16:29:08.894Z,20.03
2019-03-03T16:34:14.622Z,16.00
2019-03-03T16:39:20.148Z,11.23
2019-03-03T16:44:25.898Z,12.80
2019-03-03T16:49:31.513Z,7.23
2019-03-03T16:54:37.016Z,13.37
2019-03-03T16:59:42.690Z,12.53
2019-03-03T17:04:48.535Z,9.90
2019-03-03T17:09:54.312Z,15.60
2019-03-03T17:14:59.857Z,19.63
2019-03-03T17:20:06.335Z,20.73
2019-03-03T17:25:14.351Z,18.10
2019-03-03T17:30:21.138Z,13.07
2019-03-03T17:35:26.771Z,16.47
2019-03-03T17:40:32.407Z,18.37
2019-03-03T17:45:38.175Z,19.27
2019-03-03T17:50:43.870Z,20.13
2019-03-03T17:55:49.500Z,26.03
2019-03-03T18:00:55.118Z,30.40
2019-03-03T18:06:00.586Z,29.77
2019-03-03T18:11:06.325Z,26.97
2019-03-03T18:16:11.829Z,31.73
2019-03-03T18:21:17.515Z,29.40
2019-03-03T18:26:22.978Z,29.27
2019-03-03T18:31:28.497Z,22.13
2019-03-03T18:36:34.165Z,34.07
2019-03-03T18:41:39.754Z,17.13
2019-03-03T18:46:45.331Z,31.40
2019-03-03T18:51:51.098Z,27.90
2019-03-03T18:56:56.534Z,29.15
2019-03-03T19:02:01.950Z,38.92
2019-03-03T19:07:07.361Z,34.83
2019-03-03T19:12:13.042Z,16.70
2019-03-03T19:17:18.596Z,31.47
2019-03-03T19:22:24.086Z,33.77
2019-03-03T19:27:29.679Z,40.17
2019-03-03T19:32:35.283Z,42.30
2019-03-03T19:37:41.111Z,43.17
2019-03-03T19:42:46.692Z,37.63
2019-03-03T19:47:52.291Z,27.57
2019-03-03T19:52:57.877Z,36.30
2019-03-03T19:58:03.655Z,22.97
2019-03-03T20:03:09.410Z,26.60
2019-03-03T20:08:15.267Z,18.10
2019-03-03T20:13:20.949Z,21.43
2019-03-03T20:18:26.495Z,22.47
2019-03-03T20:23:32.007Z,21.00
2019-03-03T20:28:37.758Z,35.03
2019-03-03T20:33:43.467Z,27.17
2019-03-03T20:38:49.082Z,29.83
2019-03-03T20:43:54.556Z,20.97
2019-03-03T20:49:00.329Z,30.63
2019-03-03T20:54:05.928Z,26.87
2019-03-03T20:59:11.540Z,25.83
2019-03-03T21:04:17.208Z,22.90
2019-03-03T21:09:23.403Z,20.00
2019-03-03T21:14:28.847Z,18.25
2019-03-03T21:19:34.420Z,33.35
2019-03-03T21:24:40.102Z,17.30
2019-03-03T21:29:46.156Z,14.17
2019-03-03T21:34:51.931Z,18.47
2019-03-03T21:39:57.503Z,14.33
2019-03-03T21:45:02.968Z,15.23
2019-03-03T21:50:10.061Z,19.93
2019-03-03T21:55:15.803Z,22.90
2019-03-03T22:00:28.229Z,24.53
2019-03-03T22:05:33.913Z,15.93
2019-03-03T22:10:39.717Z,37.77
2019-03-03T22:15:45.387Z,24.50
2019-03-03T22:20:50.933Z,15.37
2019-03-03T22:25:56.465Z,19.00
2019-03-03T22:31:01.724Z,21.57
2019-03-03T22:36:07.691Z,25.37
2019-03-03T22:41:13.141Z,28.33
2019-03-03T22:46:18.822Z,21.40
2019-03-03T22:51:24.283Z,26.70
2019-03-03T22:56:29.951Z,21.17
2019-03-03T23:01:42.916Z,24.07
2019-03-03T23:07:10.558Z,24.23
2019-03-03T23:13:05.617Z,21.13
2019-03-03T23:18:57.646Z,26.93
2019-03-03T23:24:50.736Z,33.60
2019-03-03T23:29:56.524Z,23.10
2019-03-03T23:35:02.114Z,28.90
2019-03-03T23:40:07.936Z,27.23
2019-03-03T23:45:13.399Z,27.17
2019-03-03T23:50:19.062Z,30.40
2019-03-03T23:55:24.528Z,27.67
